createdAt,value
2019-05-25T00:00:17.004Z,0
2019-05-25T00:01:17.378Z,0
2019-05-25T00:02:17.198Z,0
2019-05-25T00:03:17.230Z,0
2019-05-25T00:04:16.967Z,0
2019-05-25T00:05:16.957Z,0
2019-05-25T00:06:16.925Z,0
2019-05-25T00:07:17.367Z,0
2019-05-25T00:08:17.013Z,0
2019-05-25T00:09:17.068Z,0
2019-05-25T00:10:17.256Z,0
2019-05-25T00:11:16.979Z,0
2019-05-25T00:13:22.112Z,0
2019-05-25T00:14:33.175Z,0
2019-05-25T00:19:51.107Z,0
2019-05-25T00:23:27.595Z,0
2019-05-25T00:24:38.610Z,0
2019-05-25T00:25:38.669Z,0
2019-05-25T00:26:38.568Z,0
2019-05-25T00:27:38.604Z,0
2019-05-25T00:28:38.923Z,0
2019-05-25T00:29:38.705Z,0
2019-05-25T00:30:38.595Z,0
2019-05-25T00:31:38.652Z,0
2019-05-25T00:32:38.581Z,0
2019-05-25T00:33:38.635Z,0
2019-05-25T00:34:38.957Z,0
2019-05-25T00:35:38.696Z,0
2019-05-25T00:36:38.586Z,0
2019-05-25T00:37:38.673Z,0
2019-05-25T00:38:38.646Z,0
2019-05-25T00:39:38.622Z,0
2019-05-25T00:40:38.897Z,0
2019-05-25T00:41:38.557Z,0
2019-05-25T00:42:38.646Z,0
2019-05-25T00:43:38.608Z,0
2019-05-25T00:44:38.613Z,0
2019-05-25T00:45:38.744Z,0
2019-05-25T00:46:38.937Z,0
2019-05-25T00:47:38.634Z,0
2019-05-25T00:48:38.680Z,0
2019-05-25T00:49:38.584Z,0
2019-05-25T00:50:38.657Z,0
2019-05-25T00:51:38.621Z,0
2019-05-25T00:52:39.211Z,0
2019-05-25T00:53:38.762Z,0
2019-05-25T00:54:38.880Z,0
2019-05-25T00:55:38.607Z,0
2019-05-25T00:56:38.679Z,0
2019-05-25T00:57:38.682Z,0
2019-05-25T00:58:38.989Z,0
2019-05-25T00:59:38.657Z,0
2019-05-25T01:00:38.805Z,0
2019-05-25T01:01:38.622Z,0
2019-05-25T01:02:38.712Z,0
2019-05-25T01:03:38.605Z,0
2019-05-25T01:04:38.956Z,0
2019-05-25T01:05:38.632Z,0
2019-05-25T01:06:38.652Z,0
2019-05-25T01:07:38.681Z,0
2019-05-25T01:08:38.688Z,0
2019-05-25T01:09:38.633Z,0
2019-05-25T01:10:38.680Z,0
2019-05-25T01:11:38.707Z,0
2019-05-25T01:12:38.714Z,0
2019-05-25T01:13:38.702Z,0
2019-05-25T01:14:38.775Z,0
2019-05-25T01:15:38.762Z,0
2019-05-25T01:16:39.055Z,0
2019-05-25T01:17:38.666Z,0
2019-05-25T01:18:38.700Z,0
2019-05-25T01:19:38.662Z,0
2019-05-25T01:20:39.074Z,0
2019-05-25T01:21:38.616Z,0
2019-05-25T01:22:39.048Z,0
2019-05-25T01:23:38.891Z,0
2019-05-25T01:24:54.384Z,0
2019-05-25T01:25:38.967Z,0
2019-05-25T01:26:38.677Z,0
2019-05-25T01:27:38.721Z,0
2019-05-25T01:28:40.565Z,0
2019-05-25T01:29:38.734Z,0
2019-05-25T01:30:38.717Z,0
2019-05-25T01:31:38.745Z,0
2019-05-25T01:32:38.736Z,0
2019-05-25T01:33:38.814Z,0
2019-05-25T01:34:38.701Z,0
2019-05-25T01:35:38.770Z,0
2019-05-25T01:36:38.631Z,0
2019-05-25T01:37:38.776Z,0
2019-05-25T01:38:38.666Z,0
2019-05-25T01:39:38.731Z,0
2019-05-25T01:40:39.068Z,0
2019-05-25T01:41:38.753Z,0
2019-05-25T01:42:38.965Z,0
2019-05-25T01:43:38.737Z,0
2019-05-25T01:44:38.732Z,0
2019-05-25T01:45:38.783Z,0
2019-05-25T01:46:39.027Z,0
2019-05-25T01:47:39.450Z,0
2019-05-25T01:48:38.794Z,0
2019-05-25T01:49:38.677Z,0
2019-05-25T01:50:38.685Z,0
2019-05-25T01:51:38.674Z,0
2019-05-25T01:52:38.742Z,0
2019-05-25T01:53:42.427Z,0
2019-05-25T01:54:38.718Z,0
2019-05-25T01:55:38.679Z,0
2019-05-25T01:56:38.793Z,0
2019-05-25T01:57:38.877Z,0
2019-05-25T01:58:39.073Z,0
2019-05-25T01:59:38.749Z,0
2019-05-25T02:00:38.854Z,0
2019-05-25T02:01:38.825Z,0
2019-05-25T02:02:38.800Z,0
2019-05-25T02:03:38.799Z,0
2019-05-25T02:04:39.292Z,0
2019-05-25T02:05:38.770Z,0
2019-05-25T02:06:38.845Z,0
2019-05-25T02:07:38.738Z,0
2019-05-25T02:08:38.726Z,0
2019-05-25T02:09:38.759Z,0
2019-05-25T02:10:39.124Z,0
2019-05-25T02:11:38.811Z,0
2019-05-25T02:12:38.997Z,0
2019-05-25T02:13:38.744Z,0
2019-05-25T02:18:55.584Z,0
2019-05-25T02:20:06.652Z,0
2019-05-25T02:21:06.620Z,0
2019-05-25T02:22:06.558Z,0
2019-05-25T02:23:06.692Z,0
2019-05-25T02:24:07.086Z,0
2019-05-25T02:25:24.381Z,0
2019-05-25T02:26:06.690Z,0
2019-05-25T02:27:06.648Z,0
2019-05-25T02:28:06.565Z,0
2019-05-25T02:29:06.607Z,0
2019-05-25T02:30:07.025Z,0
2019-05-25T02:31:06.599Z,0
2019-05-25T02:32:06.586Z,0
2019-05-25T02:33:06.679Z,0
2019-05-25T02:34:06.662Z,0
2019-05-25T02:35:07.110Z,0
2019-05-25T02:36:06.911Z,0
2019-05-25T02:37:06.580Z,0
2019-05-25T02:38:06.587Z,0
2019-05-25T02:39:06.738Z,0
2019-05-25T02:40:06.602Z,0
2019-05-25T02:41:06.605Z,0
2019-05-25T02:42:07.067Z,0
2019-05-25T02:43:06.766Z,0
2019-05-25T02:44:06.647Z,0
2019-05-25T02:45:06.558Z,0
2019-05-25T02:46:06.579Z,0
2019-05-25T02:47:06.626Z,0
2019-05-25T02:48:06.992Z,0
2019-05-25T02:49:06.673Z,0
2019-05-25T02:50:06.595Z,0
2019-05-25T02:51:06.629Z,0
2019-05-25T02:52:06.740Z,0
2019-05-25T02:53:06.666Z,0
2019-05-25T02:54:06.892Z,0
2019-05-25T02:55:06.906Z,0
2019-05-25T02:56:06.684Z,0
2019-05-25T02:59:14.115Z,0
2019-05-25T02:59:25.466Z,0
2019-05-25T03:00:25.079Z,0
2019-05-25T03:01:25.142Z,0
2019-05-25T03:02:25.109Z,0
2019-05-25T03:03:25.205Z,0
2019-05-25T03:04:25.085Z,0
2019-05-25T03:05:25.443Z,0
2019-05-25T03:06:25.183Z,0
2019-05-25T03:07:25.164Z,0
2019-05-25T03:08:25.130Z,0
2019-05-25T03:09:25.095Z,0
2019-05-25T03:10:25.082Z,0
2019-05-25T03:11:25.496Z,0
2019-05-25T03:12:25.097Z,0
2019-05-25T03:13:25.125Z,0
2019-05-25T03:14:25.127Z,0
2019-05-25T03:15:25.118Z,0
2019-05-25T03:16:25.141Z,0
2019-05-25T03:17:25.476Z,0
2019-05-25T03:18:25.114Z,0
2019-05-25T03:19:25.166Z,0
2019-05-25T03:20:25.112Z,0
2019-05-25T03:21:25.215Z,0
2019-05-25T03:22:25.100Z,0
2019-05-25T03:23:25.458Z,0
2019-05-25T03:24:25.141Z,0
2019-05-25T03:25:25.162Z,0
2019-05-25T03:26:25.149Z,0
2019-05-25T03:27:25.150Z,0
2019-05-25T03:28:25.138Z,0
2019-05-25T03:29:25.535Z,0
2019-05-25T03:30:25.295Z,0
2019-05-25T03:31:25.138Z,0
2019-05-25T03:32:25.150Z,0
2019-05-25T03:33:25.201Z,0
2019-05-25T03:34:25.244Z,0
2019-05-25T03:35:25.410Z,0
2019-05-25T03:36:25.159Z,0
2019-05-25T03:37:25.300Z,0
2019-05-25T03:38:25.160Z,0
2019-05-25T03:39:25.239Z,0
2019-05-25T03:40:25.264Z,0
2019-05-25T03:41:25.511Z,0
2019-05-25T03:42:25.209Z,0
2019-05-25T03:43:25.180Z,0
2019-05-25T03:44:25.983Z,0
2019-05-25T03:45:25.154Z,0
2019-05-25T03:46:25.913Z,0
2019-05-25T03:47:25.571Z,0
2019-05-25T03:48:25.173Z,0
2019-05-25T03:49:25.181Z,0
2019-05-25T03:50:25.246Z,0
2019-05-25T03:51:25.312Z,0
2019-05-25T03:52:25.155Z,0
2019-05-25T03:53:25.546Z,0
2019-05-25T03:54:25.179Z,0
2019-05-25T03:55:25.250Z,0
2019-05-25T03:56:25.252Z,0
2019-05-25T03:57:25.204Z,5
2019-05-25T03:58:25.187Z,5
2019-05-25T03:59:25.704Z,5
2019-05-25T04:00:25.261Z,5
2019-05-25T04:01:25.205Z,5
2019-05-25T04:02:25.341Z,5
2019-05-25T04:03:25.198Z,5
2019-05-25T04:04:25.185Z,5
2019-05-25T04:05:25.564Z,5
2019-05-25T04:06:25.195Z,5
2019-05-25T04:07:25.209Z,5
2019-05-25T04:08:26.172Z,5
2019-05-25T04:09:25.178Z,5
2019-05-25T04:10:25.209Z,5
2019-05-25T04:11:25.455Z,5
2019-05-25T04:12:25.200Z,5
2019-05-25T04:13:25.210Z,5
2019-05-25T04:14:25.274Z,5
2019-05-25T04:15:25.263Z,5
2019-05-25T04:16:25.202Z,5
2019-05-25T04:17:25.596Z,5
2019-05-25T04:18:26.530Z,5
2019-05-25T04:19:25.248Z,5
2019-05-25T04:20:25.269Z,5
2019-05-25T04:21:25.338Z,5
2019-05-25T04:22:25.161Z,10
2019-05-25T04:23:25.578Z,10
2019-05-25T04:24:25.245Z,10
2019-05-25T04:25:25.726Z,10
2019-05-25T04:26:35.497Z,10
2019-05-25T04:27:25.535Z,10
2019-05-25T04:28:25.215Z,10
2019-05-25T04:29:25.627Z,10
2019-05-25T04:30:25.491Z,10
2019-05-25T04:31:25.251Z,10
2019-05-25T04:32:25.241Z,10
2019-05-25T04:33:25.224Z,10
2019-05-25T04:34:25.249Z,10
2019-05-25T04:35:25.640Z,10
2019-05-25T04:36:25.304Z,10
2019-05-25T04:37:31.433Z,10
2019-05-25T04:38:31.802Z,10
2019-05-25T04:39:30.869Z,10
2019-05-25T04:40:28.275Z,10
2019-05-25T04:41:25.707Z,10
2019-05-25T04:42:25.302Z,10
2019-05-25T04:43:25.346Z,10
2019-05-25T04:44:25.281Z,10
2019-05-25T04:45:25.320Z,15
2019-05-25T04:46:26.911Z,15
2019-05-25T04:47:37.758Z,15
2019-05-25T04:48:25.221Z,15
2019-05-25T04:49:25.325Z,15
2019-05-25T04:50:25.254Z,15
2019-05-25T04:53:32.854Z,15
2019-05-25T04:53:52.314Z,20
2019-05-25T04:54:43.897Z,20
2019-05-25T04:55:43.823Z,20
2019-05-25T04:56:50.035Z,20
2019-05-25T04:57:43.863Z,20
2019-05-25T04:58:43.904Z,20
2019-05-25T04:59:44.107Z,20
2019-05-25T05:00:43.918Z,20
2019-05-25T05:01:43.903Z,20
2019-05-25T05:02:43.993Z,20
2019-05-25T05:03:43.901Z,20
2019-05-25T05:04:43.883Z,20
2019-05-25T05:05:44.256Z,20
2019-05-25T05:06:44.059Z,20
2019-05-25T05:07:43.860Z,20
2019-05-25T05:08:46.138Z,20
2019-05-25T05:14:00.305Z,20
2019-05-25T05:15:11.459Z,20
2019-05-25T05:16:11.276Z,20
2019-05-25T05:17:11.338Z,20
2019-05-25T05:18:11.380Z,20
2019-05-25T05:19:11.631Z,20
2019-05-25T05:20:11.342Z,20
2019-05-25T05:21:11.288Z,20
2019-05-25T05:22:13.729Z,20
2019-05-25T05:23:11.304Z,20
2019-05-25T05:24:11.442Z,20
2019-05-25T05:25:12.676Z,20
2019-05-25T05:26:11.357Z,20
2019-05-25T05:27:11.302Z,20
2019-05-25T05:28:11.286Z,20
2019-05-25T05:29:11.353Z,20
2019-05-25T05:30:11.348Z,20
2019-05-25T05:31:28.120Z,20
2019-05-25T05:32:24.893Z,20
2019-05-25T05:33:11.278Z,20
2019-05-25T05:34:11.328Z,20
2019-05-25T05:35:11.616Z,20
2019-05-25T05:36:11.359Z,20
2019-05-25T05:37:11.760Z,20
2019-05-25T05:38:11.485Z,20
2019-05-25T05:39:11.341Z,20
2019-05-25T05:40:11.307Z,20
2019-05-25T05:41:11.299Z,20
2019-05-25T05:42:11.404Z,20
2019-05-25T05:43:11.629Z,25
2019-05-25T05:44:11.387Z,25
2019-05-25T05:45:11.540Z,25
2019-05-25T05:46:11.325Z,25
2019-05-25T05:47:13.161Z,25
2019-05-25T05:48:11.358Z,25
2019-05-25T05:49:11.791Z,25
2019-05-25T05:50:11.368Z,25
2019-05-25T05:51:11.376Z,25
2019-05-25T05:52:11.523Z,25
2019-05-25T05:53:11.413Z,25
2019-05-25T05:54:11.990Z,25
2019-05-25T05:55:11.521Z,25
2019-05-25T05:56:11.339Z,25
2019-05-25T05:57:22.861Z,25
2019-05-25T05:58:11.333Z,25
2019-05-25T05:59:11.426Z,25
2019-05-25T06:00:11.344Z,25
2019-05-25T06:01:12.333Z,30
2019-05-25T06:02:11.484Z,30
2019-05-25T06:03:11.861Z,30
2019-05-25T06:04:11.346Z,35
2019-05-25T06:05:11.605Z,35
2019-05-25T06:06:11.712Z,35
2019-05-25T06:07:11.388Z,35
2019-05-25T06:08:11.401Z,35
2019-05-25T06:09:11.629Z,35
2019-05-25T06:10:11.392Z,30
2019-05-25T06:11:11.378Z,30
2019-05-25T06:12:11.695Z,35
2019-05-25T06:13:11.351Z,35
2019-05-25T06:14:11.338Z,35
2019-05-25T06:15:11.385Z,35
2019-05-25T06:16:11.593Z,30
2019-05-25T06:17:11.380Z,35
2019-05-25T06:18:14.945Z,35
2019-05-25T06:19:11.383Z,35
2019-05-25T06:20:11.373Z,35
2019-05-25T06:21:11.788Z,35
2019-05-25T06:22:11.516Z,40
2019-05-25T06:23:17.825Z,40
2019-05-25T06:24:11.749Z,45
2019-05-25T06:25:11.643Z,45
2019-05-25T06:26:11.499Z,45
2019-05-25T06:27:24.567Z,45
2019-05-25T06:28:11.410Z,55
2019-05-25T06:29:11.580Z,65
2019-05-25T06:30:11.766Z,70
2019-05-25T06:31:11.511Z,80
2019-05-25T06:32:11.472Z,95
2019-05-25T06:33:11.528Z,85
2019-05-25T06:34:11.490Z,125
2019-05-25T06:35:11.475Z,120
2019-05-25T06:36:13.822Z,120
2019-05-25T06:37:11.424Z,135
2019-05-25T06:38:11.481Z,160
2019-05-25T06:39:11.422Z,155
2019-05-25T06:40:11.495Z,175
2019-05-25T06:41:13.958Z,175
2019-05-25T06:42:11.813Z,180
2019-05-25T06:43:11.446Z,180
2019-05-25T06:44:11.493Z,175
2019-05-25T06:45:11.475Z,195
2019-05-25T06:46:11.444Z,175
2019-05-25T06:47:11.496Z,165
2019-05-25T06:48:11.750Z,130
2019-05-25T06:49:11.528Z,100
2019-05-25T06:50:11.574Z,70
2019-05-25T06:51:12.567Z,110
2019-05-25T06:52:11.451Z,115
2019-05-25T06:53:11.495Z,115
2019-05-25T06:54:20.437Z,110
2019-05-25T06:55:11.591Z,65
2019-05-25T06:56:11.573Z,65
2019-05-25T06:57:11.502Z,85
2019-05-25T06:58:11.732Z,65
2019-05-25T06:59:11.491Z,65
2019-05-25T07:00:11.872Z,50
2019-05-25T07:01:11.546Z,95
2019-05-25T07:02:11.739Z,125
2019-05-25T07:03:11.575Z,135
2019-05-25T07:04:11.466Z,125
2019-05-25T07:05:11.448Z,145
2019-05-25T07:06:11.854Z,150
2019-05-25T07:07:11.505Z,135
2019-05-25T07:08:11.735Z,130
2019-05-25T07:09:11.440Z,90
2019-05-25T07:10:11.751Z,85
2019-05-25T07:11:11.571Z,70
2019-05-25T07:12:11.805Z,80
2019-05-25T07:13:11.441Z,85
2019-05-25T07:14:11.555Z,70
2019-05-25T07:15:11.455Z,70
2019-05-25T07:16:11.463Z,60
2019-05-25T07:17:11.611Z,60
2019-05-25T07:18:11.858Z,65
2019-05-25T07:19:11.545Z,70
2019-05-25T07:20:11.585Z,70
2019-05-25T07:21:11.599Z,70
2019-05-25T07:22:11.703Z,55
2019-05-25T07:23:11.512Z,65
2019-05-25T07:24:12.993Z,60
2019-05-25T07:25:11.554Z,55
2019-05-25T07:26:11.503Z,50
2019-05-25T07:27:11.566Z,45
2019-05-25T07:28:11.512Z,40
2019-05-25T07:29:11.540Z,35
2019-05-25T07:30:11.953Z,35
2019-05-25T07:31:11.515Z,35
2019-05-25T07:32:11.517Z,35
2019-05-25T07:33:11.627Z,35
2019-05-25T07:34:12.393Z,35
2019-05-25T07:35:11.475Z,35
2019-05-25T07:36:15.888Z,40
2019-05-25T07:37:11.574Z,40
2019-05-25T07:38:11.803Z,40
2019-05-25T07:39:11.645Z,50
2019-05-25T07:40:11.720Z,50
2019-05-25T07:41:11.587Z,50
2019-05-25T07:42:12.186Z,55
2019-05-25T07:43:11.505Z,55
2019-05-25T07:44:11.582Z,55
2019-05-25T07:45:11.667Z,55
2019-05-25T07:46:11.671Z,55
2019-05-25T07:47:11.560Z,55
2019-05-25T07:48:11.892Z,55
2019-05-25T07:49:11.590Z,55
2019-05-25T07:50:11.576Z,50
2019-05-25T07:51:12.302Z,45
2019-05-25T07:52:13.304Z,40
2019-05-25T07:53:11.537Z,35
2019-05-25T07:54:21.970Z,35
2019-05-25T07:55:11.845Z,35
2019-05-25T07:56:11.683Z,35
2019-05-25T07:57:11.610Z,35
2019-05-25T07:58:27.342Z,30
2019-05-25T07:59:11.557Z,30
2019-05-25T08:00:11.958Z,30
2019-05-25T08:01:11.553Z,30
2019-05-25T08:02:11.539Z,30
2019-05-25T08:03:11.610Z,35
2019-05-25T08:04:11.652Z,35
2019-05-25T08:05:11.719Z,35
2019-05-25T08:06:12.001Z,35
2019-05-25T08:07:11.556Z,30
2019-05-25T08:08:13.076Z,30
2019-05-25T08:09:11.603Z,30
2019-05-25T08:10:11.674Z,30
2019-05-25T08:11:11.663Z,30
2019-05-25T08:12:11.670Z,30
2019-05-25T08:13:11.783Z,30
2019-05-25T08:14:11.638Z,30
2019-05-25T08:15:11.590Z,30
2019-05-25T08:16:11.652Z,30
2019-05-25T08:17:11.745Z,30
2019-05-25T08:18:12.040Z,30
2019-05-25T08:19:11.576Z,35
2019-05-25T08:20:11.724Z,35
2019-05-25T08:21:11.900Z,40
2019-05-25T08:22:11.670Z,40
2019-05-25T08:23:11.621Z,35
2019-05-25T08:24:21.232Z,35
2019-05-25T08:25:11.654Z,35
2019-05-25T08:26:11.661Z,35
2019-05-25T08:27:11.690Z,40
2019-05-25T08:28:11.679Z,40
2019-05-25T08:29:11.634Z,40
2019-05-25T08:30:12.360Z,40
2019-05-25T08:31:12.122Z,40
2019-05-25T08:32:11.636Z,40
2019-05-25T08:33:11.664Z,40
2019-05-25T08:34:11.646Z,40
2019-05-25T08:35:11.721Z,40
2019-05-25T08:36:11.702Z,40
2019-05-25T08:37:11.628Z,40
2019-05-25T08:38:11.640Z,40
2019-05-25T08:39:11.747Z,45
2019-05-25T08:40:11.626Z,45
2019-05-25T08:41:11.686Z,50
2019-05-25T08:42:12.894Z,55
2019-05-25T08:43:11.934Z,55
2019-05-25T08:44:14.948Z,65
2019-05-25T08:45:11.764Z,70
2019-05-25T08:46:11.687Z,60
2019-05-25T08:47:11.630Z,75
2019-05-25T08:48:14.856Z,85
2019-05-25T08:49:11.667Z,85
2019-05-25T08:50:11.797Z,85
2019-05-25T08:51:11.737Z,85
2019-05-25T08:52:14.619Z,85
2019-05-25T08:53:11.736Z,85
2019-05-25T08:54:24.722Z,85
2019-05-25T08:55:11.980Z,85
2019-05-25T08:56:11.706Z,85
2019-05-25T08:57:14.120Z,85
2019-05-25T08:58:11.674Z,85
2019-05-25T08:59:11.905Z,80
2019-05-25T09:00:11.630Z,80
2019-05-25T09:01:11.684Z,80
2019-05-25T09:02:11.785Z,85
2019-05-25T09:03:11.685Z,80
2019-05-25T09:04:11.752Z,85
2019-05-25T09:05:11.731Z,80
2019-05-25T09:06:11.684Z,80
2019-05-25T09:07:11.654Z,80
2019-05-25T09:08:11.675Z,80
2019-05-25T09:09:11.662Z,80
2019-05-25T09:10:11.652Z,80
2019-05-25T09:11:11.766Z,80
2019-05-25T09:12:13.220Z,80
2019-05-25T09:13:11.638Z,80
2019-05-25T09:14:11.637Z,80
2019-05-25T09:15:13.833Z,80
2019-05-25T09:16:11.696Z,80
2019-05-25T09:17:11.781Z,80
2019-05-25T09:18:12.645Z,80
2019-05-25T09:19:11.667Z,80
2019-05-25T09:20:11.817Z,80
2019-05-25T09:21:11.738Z,80
2019-05-25T09:22:14.186Z,80
2019-05-25T09:23:11.739Z,80
2019-05-25T09:24:23.773Z,75
2019-05-25T09:25:11.758Z,75
2019-05-25T09:26:13.417Z,80
2019-05-25T09:27:11.868Z,80
2019-05-25T09:28:11.688Z,80
2019-05-25T09:29:15.382Z,80
2019-05-25T09:30:12.096Z,80
2019-05-25T09:31:11.735Z,80
2019-05-25T09:32:14.878Z,80
2019-05-25T09:33:11.804Z,80
2019-05-25T09:34:11.728Z,80
2019-05-25T09:35:11.698Z,80
2019-05-25T09:36:13.094Z,80
2019-05-25T09:37:11.747Z,80
2019-05-25T09:38:11.895Z,80
2019-05-25T09:39:11.822Z,80
2019-05-25T09:40:11.692Z,80
2019-05-25T09:41:11.716Z,80
2019-05-25T09:42:12.110Z,80
2019-05-25T09:43:11.753Z,80
2019-05-25T09:44:11.690Z,80
2019-05-25T09:45:13.988Z,80
2019-05-25T09:46:13.749Z,80
2019-05-25T09:47:11.734Z,80
2019-05-25T09:48:11.777Z,80
2019-05-25T09:49:11.766Z,80
2019-05-25T09:50:12.086Z,85
2019-05-25T09:51:20.747Z,85
2019-05-25T09:52:11.745Z,85
2019-05-25T09:53:12.109Z,85
2019-05-25T09:54:33.182Z,85
2019-05-25T09:55:12.403Z,85
2019-05-25T09:56:11.816Z,85
2019-05-25T09:57:11.923Z,85
2019-05-25T09:58:11.813Z,85
2019-05-25T09:59:27.197Z,85
2019-05-25T10:00:11.775Z,85
2019-05-25T10:01:11.786Z,85
2019-05-25T10:02:11.794Z,85
2019-05-25T10:03:11.820Z,90
2019-05-25T10:04:11.721Z,75
2019-05-25T10:05:11.837Z,50
2019-05-25T10:06:22.632Z,50
2019-05-25T10:07:11.809Z,50
2019-05-25T10:08:11.813Z,55
2019-05-25T10:09:12.130Z,75
2019-05-25T10:10:11.809Z,85
2019-05-25T10:11:12.067Z,55
2019-05-25T10:12:15.451Z,85
2019-05-25T10:13:11.823Z,95
2019-05-25T10:14:11.898Z,95
2019-05-25T10:15:11.900Z,80
2019-05-25T10:16:11.969Z,65
2019-05-25T10:17:11.769Z,60
2019-05-25T10:18:11.898Z,95
2019-05-25T10:19:11.843Z,80
2019-05-25T10:20:11.833Z,75
2019-05-25T10:21:14.351Z,45
2019-05-25T10:22:11.869Z,40
2019-05-25T10:23:12.144Z,40
2019-05-25T10:24:47.128Z,75
2019-05-25T10:25:12.243Z,70
2019-05-25T10:26:12.400Z,85
2019-05-25T10:27:12.208Z,85
2019-05-25T10:28:12.283Z,85
2019-05-25T10:29:12.503Z,85
2019-05-25T10:30:12.242Z,85
2019-05-25T10:31:12.255Z,85
2019-05-25T10:32:12.146Z,85
2019-05-25T10:33:12.266Z,85
2019-05-25T10:34:12.475Z,85
2019-05-25T10:35:12.205Z,85
2019-05-25T10:36:12.818Z,85
2019-05-25T10:37:12.171Z,85
2019-05-25T10:38:12.384Z,80
2019-05-25T10:39:12.201Z,85
2019-05-25T10:40:12.488Z,85
2019-05-25T10:41:12.016Z,85
2019-05-25T10:42:11.970Z,85
2019-05-25T10:43:12.178Z,85
2019-05-25T10:44:11.924Z,85
2019-05-25T10:45:12.282Z,85
2019-05-25T10:46:12.413Z,85
2019-05-25T10:47:12.407Z,80
2019-05-25T10:48:12.127Z,80
2019-05-25T10:49:14.455Z,80
2019-05-25T10:50:12.111Z,80
2019-05-25T10:51:12.251Z,80
2019-05-25T10:52:12.438Z,80
2019-05-25T10:53:12.135Z,80
2019-05-25T10:54:11.876Z,80
2019-05-25T10:55:12.176Z,80
2019-05-25T10:56:11.917Z,80
2019-05-25T10:59:19.448Z,80
2019-05-25T10:59:30.477Z,80
2019-05-25T11:00:30.641Z,80
2019-05-25T11:01:30.788Z,80
2019-05-25T11:02:30.533Z,80
2019-05-25T11:03:30.562Z,80
2019-05-25T11:04:30.856Z,80
2019-05-25T11:05:30.738Z,80
2019-05-25T11:06:30.648Z,75
2019-05-25T11:07:30.611Z,80
2019-05-25T11:08:30.550Z,80
2019-05-25T11:09:30.582Z,80
2019-05-25T11:10:30.831Z,80
2019-05-25T11:11:30.434Z,80
2019-05-25T11:12:33.922Z,80
2019-05-25T11:13:30.570Z,80
2019-05-25T11:14:30.497Z,80
2019-05-25T11:15:30.482Z,80
2019-05-25T11:16:30.876Z,80
2019-05-25T11:17:30.651Z,80
2019-05-25T11:18:30.578Z,80
2019-05-25T11:19:32.307Z,80
2019-05-25T11:20:30.538Z,80
2019-05-25T11:21:30.451Z,80
2019-05-25T11:22:30.825Z,75
2019-05-25T11:23:30.533Z,80
2019-05-25T11:24:39.978Z,80
2019-05-25T11:25:30.503Z,80
2019-05-25T11:26:30.505Z,75
2019-05-25T11:27:30.528Z,80
2019-05-25T11:28:31.013Z,75
2019-05-25T11:29:30.646Z,75
2019-05-25T11:30:30.496Z,65
2019-05-25T11:31:30.751Z,65
2019-05-25T11:32:30.499Z,50
2019-05-25T11:33:30.509Z,60
2019-05-25T11:34:30.588Z,60
2019-05-25T11:35:30.622Z,60
2019-05-25T11:36:30.506Z,60
2019-05-25T11:37:30.627Z,55
2019-05-25T11:38:30.754Z,60
2019-05-25T11:39:30.552Z,50
2019-05-25T11:40:30.763Z,55
2019-05-25T11:41:30.527Z,60
2019-05-25T11:42:30.602Z,50
2019-05-25T11:43:30.575Z,60
2019-05-25T11:44:30.522Z,60
2019-05-25T11:45:30.485Z,55
2019-05-25T11:46:30.921Z,55
2019-05-25T11:47:30.581Z,55
2019-05-25T11:48:30.545Z,55
2019-05-25T11:49:33.360Z,55
2019-05-25T11:50:30.523Z,55
2019-05-25T11:51:30.524Z,50
2019-05-25T11:52:30.885Z,55
2019-05-25T11:53:30.701Z,45
2019-05-25T11:54:41.800Z,55
2019-05-25T11:55:30.572Z,55
2019-05-25T11:56:30.687Z,55
2019-05-25T11:57:30.555Z,55
2019-05-25T11:58:39.076Z,55
2019-05-25T11:59:30.521Z,55
2019-05-25T12:00:36.105Z,55
2019-05-25T12:01:30.594Z,55
2019-05-25T12:02:30.616Z,55
2019-05-25T12:03:30.586Z,55
2019-05-25T12:04:31.046Z,55
2019-05-25T12:05:30.647Z,55
2019-05-25T12:06:30.635Z,55
2019-05-25T12:07:30.681Z,55
2019-05-25T12:08:30.644Z,55
2019-05-25T12:09:30.627Z,55
2019-05-25T12:10:31.010Z,55
2019-05-25T12:11:31.202Z,55
2019-05-25T12:12:30.611Z,50
2019-05-25T12:13:34.590Z,50
2019-05-25T12:14:30.557Z,50
2019-05-25T12:15:30.647Z,55
2019-05-25T12:16:30.959Z,55
2019-05-25T12:17:30.718Z,50
2019-05-25T12:18:30.758Z,55
2019-05-25T12:19:30.658Z,55
2019-05-25T12:20:30.926Z,55
2019-05-25T12:21:30.649Z,55
2019-05-25T12:22:30.941Z,55
2019-05-25T12:23:30.578Z,55
2019-05-25T12:24:47.494Z,55
2019-05-25T12:25:36.842Z,55
2019-05-25T12:26:37.655Z,55
2019-05-25T12:27:37.104Z,55
2019-05-25T12:28:37.878Z,55
2019-05-25T12:29:37.365Z,55
2019-05-25T12:30:52.173Z,55
2019-05-25T12:31:36.741Z,50
2019-05-25T12:32:37.552Z,55
2019-05-25T12:33:48.263Z,50
2019-05-25T12:35:09.666Z,55
2019-05-25T12:35:38.328Z,45
2019-05-25T12:36:37.358Z,50
2019-05-25T12:37:37.380Z,55
2019-05-25T12:38:37.203Z,55
2019-05-25T12:39:38.590Z,55
2019-05-25T12:40:50.899Z,55
2019-05-25T12:41:37.451Z,55
2019-05-25T12:42:37.246Z,50
2019-05-25T12:43:37.034Z,50
2019-05-25T12:44:38.643Z,50
2019-05-25T12:45:41.456Z,50
2019-05-25T12:46:37.681Z,50
2019-05-25T12:47:37.318Z,55
2019-05-25T12:48:37.564Z,55
2019-05-25T12:49:53.988Z,55
2019-05-25T12:50:37.546Z,50
2019-05-25T12:51:37.616Z,55
2019-05-25T12:52:37.724Z,40
2019-05-25T12:53:37.740Z,35
2019-05-25T12:54:48.995Z,45
2019-05-25T12:55:37.375Z,45
2019-05-25T12:56:37.526Z,45
2019-05-25T12:57:39.926Z,45
2019-05-25T12:58:39.787Z,45
2019-05-25T12:59:37.144Z,40
2019-05-25T13:00:38.521Z,45
2019-05-25T13:01:37.566Z,45
2019-05-25T13:02:37.591Z,40
2019-05-25T13:03:40.497Z,35
2019-05-25T13:04:37.934Z,40
2019-05-25T13:05:50.150Z,20
2019-05-25T13:06:37.485Z,20
2019-05-25T13:07:37.311Z,25
2019-05-25T13:08:38.220Z,20
2019-05-25T13:09:37.405Z,30
2019-05-25T13:10:37.924Z,35
2019-05-25T13:11:37.739Z,35
2019-05-25T13:12:38.148Z,30
2019-05-25T13:13:38.090Z,30
2019-05-25T13:14:37.332Z,40
2019-05-25T13:15:39.512Z,35
2019-05-25T13:16:37.627Z,40
2019-05-25T13:17:38.958Z,45
2019-05-25T13:18:38.001Z,30
2019-05-25T13:19:37.568Z,35
2019-05-25T13:20:37.651Z,30
2019-05-25T13:21:37.613Z,30
2019-05-25T13:22:39.516Z,30
2019-05-25T13:23:38.729Z,30
2019-05-25T13:24:49.510Z,40
2019-05-25T13:25:37.839Z,45
2019-05-25T13:26:37.840Z,45
2019-05-25T13:27:37.460Z,45
2019-05-25T13:28:38.139Z,45
2019-05-25T13:29:37.721Z,35
2019-05-25T13:30:37.580Z,35
2019-05-25T13:31:37.878Z,25
2019-05-25T13:32:37.789Z,30
2019-05-25T13:33:37.612Z,45
2019-05-25T13:34:38.101Z,40
2019-05-25T13:35:38.423Z,35
2019-05-25T13:36:38.533Z,35
2019-05-25T13:37:37.711Z,35
2019-05-25T13:38:37.678Z,35
2019-05-25T13:39:37.317Z,30
2019-05-25T13:40:38.047Z,35
2019-05-25T13:41:37.188Z,35
2019-05-25T13:42:37.643Z,30
2019-05-25T13:43:37.594Z,35
2019-05-25T13:44:37.534Z,35
2019-05-25T13:45:37.480Z,40
2019-05-25T13:46:38.684Z,35
2019-05-25T13:47:38.094Z,35
2019-05-25T13:48:37.468Z,35
2019-05-25T13:49:37.707Z,35
2019-05-25T13:50:37.315Z,30
2019-05-25T13:51:37.601Z,20
2019-05-25T13:52:38.010Z,20
2019-05-25T13:53:40.884Z,20
2019-05-25T13:54:48.968Z,20
2019-05-25T13:55:38.032Z,20
2019-05-25T13:56:37.511Z,20
2019-05-25T13:57:37.439Z,20
2019-05-25T13:58:39.192Z,20
2019-05-25T13:59:38.256Z,20
2019-05-25T14:00:37.529Z,20
2019-05-25T14:01:44.152Z,20
2019-05-25T14:02:37.697Z,20
2019-05-25T14:03:37.677Z,20
2019-05-25T14:04:38.073Z,20
2019-05-25T14:05:38.194Z,20
2019-05-25T14:06:37.145Z,20
2019-05-25T14:07:37.684Z,45
2019-05-25T14:08:38.498Z,30
2019-05-25T14:09:37.828Z,20
2019-05-25T14:10:40.145Z,20
2019-05-25T14:11:37.791Z,20
2019-05-25T14:12:37.513Z,20
2019-05-25T14:13:37.821Z,20
2019-05-25T14:14:40.289Z,30
2019-05-25T14:15:38.686Z,30
2019-05-25T14:16:37.745Z,20
2019-05-25T14:17:37.958Z,15
2019-05-25T14:18:38.192Z,20
2019-05-25T14:19:41.184Z,15
2019-05-25T14:20:38.583Z,15
2019-05-25T14:21:37.648Z,15
2019-05-25T14:22:37.596Z,15
2019-05-25T14:23:37.789Z,15
2019-05-25T14:24:50.305Z,15
2019-05-25T14:25:37.381Z,15
2019-05-25T14:26:37.830Z,15
2019-05-25T14:27:38.002Z,15
2019-05-25T14:28:37.734Z,15
2019-05-25T14:29:39.552Z,15
2019-05-25T14:30:37.829Z,15
2019-05-25T14:31:53.125Z,15
2019-05-25T14:32:37.666Z,15
2019-05-25T14:33:37.935Z,15
2019-05-25T14:34:37.739Z,10
2019-05-25T14:35:37.593Z,10
2019-05-25T14:36:37.618Z,10
2019-05-25T14:37:37.277Z,10
2019-05-25T14:38:38.190Z,10
2019-05-25T14:39:37.733Z,10
2019-05-25T14:40:38.227Z,10
2019-05-25T14:41:37.413Z,10
2019-05-25T14:42:37.423Z,10
2019-05-25T14:43:37.761Z,10
2019-05-25T14:44:37.126Z,10